Aviation Digital Data Service (ADDS)

Output produced by METARs form (0923 UTC 23 July 2019)
found at http://www.aviationweather.gov/metar/data/
 
Forecast for: OJAI (QUEEN ALIA INTL , JO)
Text: TAF OJAI 230500Z 2306/2412 33005KT 6000 NSC
Forecast period: 0600 UTC 23 July 2019 to 1200 UTC 24 July 2019
Forecast type: FROM: standard forecast or significant change
Winds: from the NNW (330 degrees) at 6 MPH (5 knots; 2.6 m/s)
Visibility: 4 miles (6 km)
Ceiling: unknown
Clouds: missing
Weather: no significant weather forecast for this period
Text: TEMPO 2309/2318 32015KT 5000 HZ
Forecast period: 0900 to 1800 UTC 23 July 2019
Forecast type: TEMPORARY: The following changes expected for less than half the time period
Winds: from the NW (320 degrees) at 17 MPH (15 knots; 7.7 m/s)
Visibility: 3 miles (5 km)
Ceiling: unknown
Clouds: missing
Weather: HZ  (haze)